sensor_id;sensor_type;location;lat;lon;timestamp;pressure;altitude;pressure_sealevel;temperature;humidity
48624;BME280;75490;45.802;16.114;2024-01-15T00:02:03;63750.56;;;-0.47;100.00
48624;BME280;75490;45.802;16.114;2024-01-15T00:04:30;63742.59;;;-0.52;100.00
48624;BME280;75490;45.802;16.114;2024-01-15T00:06:56;63751.06;;;-0.49;100.00
48624;BME280;75490;45.802;16.114;2024-01-15T00:09:23;63743.66;;;-0.51;100.00
48624;BME280;75490;45.802;16.114;2024-01-15T00:11:50;63746.31;;;-0.51;100.00
48624;BME280;75490;45.802;16.114;2024-01-15T00:14:17;63742.56;;;-0.57;100.00
48624;BME280;75490;45.802;16.114;2024-01-15T00:16:46;63742.00;;;-0.60;100.00
48624;BME280;75490;45.802;16.114;2024-01-15T00:19:15;63742.03;;;-0.57;100.00
48624;BME280;75490;45.802;16.114;2024-01-15T00:21:42;63744.69;;;-0.55;100.00
48624;BME280;75490;45.802;16.114;2024-01-15T00:24:09;63741.00;;;-0.53;100.00
48624;BME280;75490;45.802;16.114;2024-01-15T00:26:36;63738.84;;;-0.58;100.00
48624;BME280;75490;45.802;16.114;2024-01-15T00:29:02;63738.34;;;-0.56;100.00
48624;BME280;75490;45.802;16.114;2024-01-15T00:31:29;63735.16;;;-0.59;100.00
48624;BME280;75490;45.802;16.114;2024-01-15T00:33:56;63741.50;;;-0.58;100.00
48624;BME280;75490;45.802;16.114;2024-01-15T00:36:24;63729.78;;;-0.66;100.00
48624;BME280;75490;45.802;16.114;2024-01-15T00:38:51;63736.72;;;-0.60;100.00
48624;BME280;75490;45.802;16.114;2024-01-15T00:41:18;63742.56;;;-0.57;100.00
48624;BME280;75490;45.802;16.114;2024-01-15T00:43:45;63739.94;;;-0.57;100.00
48624;BME280;75490;45.802;16.114;2024-01-15T00:46:12;63734.09;;;-0.60;100.00
48624;BME280;75490;45.802;16.114;2024-01-15T00:48:39;63738.81;;;-0.60;100.00
48624;BME280;75490;45.802;16.114;2024-01-15T00:51:06;63731.41;;;-0.62;100.00
48624;BME280;75490;45.802;16.114;2024-01-15T00:53:33;63744.69;;;-0.55;100.00
48624;BME280;75490;45.802;16.114;2024-01-15T00:56:00;63746.81;;;-0.53;100.00
48624;BME280;75490;45.802;16.114;2024-01-15T00:58:28;63748.94;;;-0.51;100.00
48624;BME280;75490;45.802;16.114;2024-01-15T01:00:55;63754.28;;;-0.46;100.00
48624;BME280;75490;45.802;16.114;2024-01-15T01:03:22;63749.00;;;-0.46;100.00
48624;BME280;75490;45.802;16.114;2024-01-15T01:05:52;63754.25;;;-0.48;100.00
48624;BME280;75490;45.802;16.114;2024-01-15T01:08:18;63749.50;;;-0.48;100.00
48624;BME280;75490;45.802;16.114;2024-01-15T01:10:46;63752.72;;;-0.45;100.00
48624;BME280;75490;45.802;16.114;2024-01-15T01:13:13;63748.97;;;-0.48;100.00
48624;BME280;75490;45.802;16.114;2024-01-15T01:15:40;63756.97;;;-0.41;100.00
48624;BME280;75490;45.802;16.114;2024-01-15T01:18:06;63752.72;;;-0.45;100.00
48624;BME280;75490;45.802;16.114;2024-01-15T01:20:33;63759.59;;;-0.41;100.00
48624;BME280;75490;45.802;16.114;2024-01-15T01:23:01;63764.38;;;-0.39;100.00
48624;BME280;75490;45.802;16.114;2024-01-15T01:25:28;63759.59;;;-0.41;100.00
48624;BME280;75490;45.802;16.114;2024-01-15T01:27:57;63764.94;;;-0.36;100.00
48624;BME280;75490;45.802;16.114;2024-01-15T01:30:24;63762.78;;;-0.38;100.00
48624;BME280;75490;45.802;16.114;2024-01-15T01:32:51;63770.25;;;-0.30;100.00
48624;BME280;75490;45.802;16.114;2024-01-15T01:35:18;63761.78;;;-0.33;100.00
48624;BME280;75490;45.802;16.114;2024-01-15T01:37:48;63765.53;;;-0.30;100.00
48624;BME280;75490;45.802;16.114;2024-01-15T01:40:15;63767.09;;;-0.31;100.00
48624;BME280;75490;45.802;16.114;2024-01-15T01:42:43;63774.50;;;-0.26;100.00
48624;BME280;75490;45.802;16.114;2024-01-15T01:45:10;63772.41;;;-0.28;100.00
48624;BME280;75490;45.802;16.114;2024-01-15T01:47:38;63776.66;;;-0.24;100.00
48624;BME280;75490;45.802;16.114;2024-01-15T01:50:06;63769.25;;;-0.26;100.00
48624;BME280;75490;45.802;16.114;2024-01-15T01:52:34;63766.59;;;-0.29;100.00
48624;BME280;75490;45.802;16.114;2024-01-15T01:55:03;63772.94;;;-0.28;100.00
48624;BME280;75490;45.802;16.114;2024-01-15T01:57:31;63775.63;;;-0.23;100.00
48624;BME280;75490;45.802;16.114;2024-01-15T02:00:06;63780.91;;;-0.20;100.00
48624;BME280;75490;45.802;16.114;2024-01-15T02:02:33;63782.56;;;-0.16;100.00
48624;BME280;75490;45.802;16.114;2024-01-15T02:05:04;63782.56;;;-0.16;100.00
48624;BME280;75490;45.802;16.114;2024-01-15T02:07:34;63784.16;;;-0.12;100.00
48624;BME280;75490;45.802;16.114;2024-01-15T02:10:02;63779.91;;;-0.16;100.00
48624;BME280;75490;45.802;16.114;2024-01-15T02:12:29;63789.41;;;-0.17;100.00
48624;BME280;75490;45.802;16.114;2024-01-15T02:14:56;63782.03;;;-0.17;100.00
48624;BME280;75490;45.802;16.114;2024-01-15T02:17:24;63796.88;;;-0.08;100.00
48624;BME280;75490;45.802;16.114;2024-01-15T02:19:51;63792.66;;;-0.09;100.00
48624;BME280;75490;45.802;16.114;2024-01-15T02:22:19;63792.66;;;-0.09;100.00
48624;BME280;75490;45.802;16.114;2024-01-15T02:24:47;63790.56;;;-0.06;100.00
48624;BME280;75490;45.802;16.114;2024-01-15T02:27:15;63799.06;;;-0.03;100.00
48624;BME280;75490;45.802;16.114;2024-01-15T02:29:43;63801.19;;;-0.01;100.00
48624;BME280;75490;45.802;16.114;2024-01-15T02:32:10;63794.31;;;-0.03;100.00
48624;BME280;75490;45.802;16.114;2024-01-15T02:34:37;63796.41;;;-0.03;100.00
48624;BME280;75490;45.802;16.114;2024-01-15T02:37:05;63797.97;;;-0.04;100.00
48624;BME280;75490;45.802;16.114;2024-01-15T02:39:33;63801.72;;;0.02;100.00
48624;BME280;75490;45.802;16.114;2024-01-15T02:42:00;63799.09;;;0.02;100.00
48624;BME280;75490;45.802;16.114;2024-01-15T02:44:27;63804.44;;;0.07;100.00
48624;BME280;75490;45.802;16.114;2024-01-15T02:46:54;63808.13;;;0.08;100.00
48624;BME280;75490;45.802;16.114;2024-01-15T02:49:21;63809.75;;;0.10;100.00
48624;BME280;75490;45.802;16.114;2024-01-15T02:51:48;63815.06;;;0.12;100.00
48624;BME280;75490;45.802;16.114;2024-01-15T02:54:15;63814.56;;;0.17;100.00
48624;BME280;75490;45.802;16.114;2024-01-15T02:56:42;63819.88;;;0.19;100.00
48624;BME280;75490;45.802;16.114;2024-01-15T02:59:09;63816.69;;;0.19;100.00
48624;BME280;75490;45.802;16.114;2024-01-15T03:01:36;63818.84;;;0.21;100.00
48624;BME280;75490;45.802;16.114;2024-01-15T03:04:02;63819.88;;;0.19;100.00
48624;BME280;75490;45.802;16.114;2024-01-15T03:06:30;63832.09;;;0.28;100.00
48624;BME280;75490;45.802;16.114;2024-01-15T03:09:03;63836.38;;;0.32;100.00
48624;BME280;75490;45.802;16.114;2024-01-15T03:11:37;63841.72;;;0.38;100.00
48624;BME280;75490;45.802;16.114;2024-01-15T03:14:04;63847.03;;;0.43;100.00
48624;BME280;75490;45.802;16.114;2024-01-15T03:16:32;63844.97;;;0.46;100.00
48624;BME280;75490;45.802;16.114;2024-01-15T03:19:02;63851.31;;;0.47;100.00
48624;BME280;75490;45.802;16.114;2024-01-15T03:21:29;63850.31;;;0.51;100.00
48624;BME280;75490;45.802;16.114;2024-01-15T03:23:59;63858.78;;;0.54;100.00
48624;BME280;75490;45.802;16.114;2024-01-15T03:26:26;63848.72;;;0.52;100.00
48624;BME280;75490;45.802;16.114;2024-01-15T03:28:53;63855.63;;;0.56;100.00
48624;BME280;75490;45.802;16.114;2024-01-15T03:31:23;63864.16;;;0.64;100.00
48624;BME280;75490;45.802;16.114;2024-01-15T03:33:50;63874.81;;;0.71;100.00
48624;BME280;75490;45.802;16.114;2024-01-15T03:36:17;63878.59;;;0.80;100.00
48624;BME280;75490;45.802;16.114;2024-01-15T03:38:44;63887.06;;;0.83;100.00
48624;BME280;75490;45.802;16.114;2024-01-15T03:41:14;63889.19;;;0.85;100.00
48624;BME280;75490;45.802;16.114;2024-01-15T03:43:41;63891.84;;;0.85;100.00
48624;BME280;75490;45.802;16.114;2024-01-15T03:46:09;63893.50;;;0.92;100.00
48624;BME280;75490;45.802;16.114;2024-01-15T03:48:36;63891.91;;;0.90;100.00
48624;BME280;75490;45.802;16.114;2024-01-15T03:51:03;63899.31;;;0.92;100.00
48624;BME280;75490;45.802;16.114;2024-01-15T03:53:35;63900.94;;;0.96;100.00
48624;BME280;75490;45.802;16.114;2024-01-15T03:56:02;63900.41;;;0.96;100.00
48624;BME280;75490;45.802;16.114;2024-01-15T03:58:29;63896.16;;;0.92;100.00
48624;BME280;75490;45.802;16.114;2024-01-15T04:00:56;63905.72;;;0.98;100.00
48624;BME280;75490;45.802;16.114;2024-01-15T04:03:22;63899.38;;;0.97;100.00
48624;BME280;75490;45.802;16.114;2024-01-15T04:05:50;63903.59;;;0.96;100.00
48624;BME280;75490;45.802;16.114;2024-01-15T04:08:17;63901.50;;;0.99;100.00
48624;BME280;75490;45.802;16.114;2024-01-15T04:10:44;63899.94;;;1.00;100.00
48624;BME280;75490;45.802;16.114;2024-01-15T04:13:11;63905.78;;;1.03;100.00
48624;BME280;75490;45.802;16.114;2024-01-15T04:15:38;63908.41;;;1.03;100.00
48624;BME280;75490;45.802;16.114;2024-01-15T04:18:05;63910.56;;;1.05;100.00
48624;BME280;75490;45.802;16.114;2024-01-15T04:20:31;63915.34;;;1.08;100.00
48624;BME280;75490;45.802;16.114;2024-01-15T04:22:58;63916.97;;;1.14;100.00
48624;BME280;75490;45.802;16.114;2024-01-15T04:25:25;63923.94;;;1.21;100.00
48624;BME280;75490;45.802;16.114;2024-01-15T04:27:52;63927.13;;;1.24;100.00
48624;BME280;75490;45.802;16.114;2024-01-15T04:30:19;63935.66;;;1.32;100.00
48624;BME280;75490;45.802;16.114;2024-01-15T04:32:49;63938.88;;;1.35;100.00
48624;BME280;75490;45.802;16.114;2024-01-15T04:35:19;63943.63;;;1.37;100.00
48624;BME280;75490;45.802;16.114;2024-01-15T04:37:46;63944.19;;;1.40;100.00
48624;BME280;75490;45.802;16.114;2024-01-15T04:40:12;63955.91;;;1.46;100.00
48624;BME280;75490;45.802;16.114;2024-01-15T04:42:40;63958.09;;;1.53;100.00
48624;BME280;75490;45.802;16.114;2024-01-15T04:45:07;63962.88;;;1.55;100.00
48624;BME280;75490;45.802;16.114;2024-01-15T04:47:34;63965.00;;;1.57;100.00
48624;BME280;75490;45.802;16.114;2024-01-15T04:50:04;63966.09;;;1.61;100.00
48624;BME280;75490;45.802;16.114;2024-01-15T04:52:31;63973.00;;;1.65;100.00
48624;BME280;75490;45.802;16.114;2024-01-15T04:54:58;63973.53;;;1.65;100.00
48624;BME280;75490;45.802;16.114;2024-01-15T04:57:25;63977.28;;;1.69;100.00
48624;BME280;75490;45.802;16.114;2024-01-15T04:59:52;63986.91;;;1.81;100.00
48624;BME280;75490;45.802;16.114;2024-01-15T05:02:18;63985.84;;;1.79;100.00
48624;BME280;75490;45.802;16.114;2024-01-15T05:04:45;63998.09;;;1.86;100.00
48624;BME280;75490;45.802;16.114;2024-01-15T05:07:12;63984.78;;;1.78;100.00
48624;BME280;75490;45.802;16.114;2024-01-15T05:09:39;63983.16;;;1.74;100.00
48624;BME280;75490;45.802;16.114;2024-01-15T05:12:06;63978.38;;;1.72;100.00
48624;BME280;75490;45.802;16.114;2024-01-15T05:14:33;63976.28;;;1.73;100.00
48624;BME280;75490;45.802;16.114;2024-01-15T05:17:00;63980.53;;;1.74;100.00
48624;BME280;75490;45.802;16.114;2024-01-15T05:19:27;63975.72;;;1.70;100.00
48624;BME280;75490;45.802;16.114;2024-01-15T05:21:53;63977.31;;;1.71;100.00
48624;BME280;75490;45.802;16.114;2024-01-15T05:24:20;63986.38;;;1.80;100.00
48624;BME280;75490;45.802;16.114;2024-01-15T05:26:47;63988.47;;;1.77;100.00
48624;BME280;75490;45.802;16.114;2024-01-15T05:29:14;63987.41;;;1.78;100.00
48624;BME280;75490;45.802;16.114;2024-01-15T05:31:40;63982.66;;;1.76;100.00
48624;BME280;75490;45.802;16.114;2024-01-15T05:34:07;63981.59;;;1.75;100.00
48624;BME280;75490;45.802;16.114;2024-01-15T05:36:34;63982.13;;;1.76;100.00
48624;BME280;75490;45.802;16.114;2024-01-15T05:39:01;63983.66;;;1.72;100.00
48624;BME280;75490;45.802;16.114;2024-01-15T05:41:27;63977.78;;;1.67;100.00
48624;BME280;75490;45.802;16.114;2024-01-15T05:43:54;63975.13;;;1.67;100.00
48624;BME280;75490;45.802;16.114;2024-01-15T05:46:21;63979.44;;;1.73;100.00
48624;BME280;75490;45.802;16.114;2024-01-15T05:48:48;63978.88;;;1.70;100.00
48624;BME280;75490;45.802;16.114;2024-01-15T05:51:14;63982.63;;;1.74;100.00
48624;BME280;75490;45.802;16.114;2024-01-15T05:53:41;63982.66;;;1.76;100.00
48624;BME280;75490;45.802;16.114;2024-01-15T05:56:09;63986.38;;;1.80;100.00
48624;BME280;75490;45.802;16.114;2024-01-15T05:58:37;63996.47;;;1.85;100.00
48624;BME280;75490;45.802;16.114;2024-01-15T06:01:03;64000.25;;;1.91;100.00
48624;BME280;75490;45.802;16.114;2024-01-15T06:03:30;64004.00;;;1.97;100.00
48624;BME280;75490;45.802;16.114;2024-01-15T06:05:57;64005.09;;;1.98;100.00
48624;BME280;75490;45.802;16.114;2024-01-15T06:08:24;64014.69;;;2.07;100.00
48624;BME280;75490;45.802;16.114;2024-01-15T06:10:53;64029.69;;;2.24;100.00
48624;BME280;75490;45.802;16.114;2024-01-15T06:13:20;64037.06;;;2.23;100.00
48624;BME280;75490;45.802;16.114;2024-01-15T06:15:46;64016.88;;;2.14;100.00
48624;BME280;75490;45.802;16.114;2024-01-15T06:18:13;64017.91;;;2.10;100.00
48624;BME280;75490;45.802;16.114;2024-01-15T06:20:40;64019.47;;;2.09;100.00
48624;BME280;75490;45.802;16.114;2024-01-15T06:23:07;64016.31;;;2.11;100.00
48624;BME280;75490;45.802;16.114;2024-01-15T06:25:33;64017.91;;;2.10;100.00
48624;BME280;75490;45.802;16.114;2024-01-15T06:28:00;64015.22;;;2.07;100.00
48624;BME280;75490;45.802;16.114;2024-01-15T06:30:27;64039.78;;;2.28;100.00
48624;BME280;75490;45.802;16.114;2024-01-15T06:32:54;64033.38;;;2.22;100.00
48624;BME280;75490;45.802;16.114;2024-01-15T06:35:22;64034.94;;;2.21;100.00
48624;BME280;75490;45.802;16.114;2024-01-15T06:37:48;64030.72;;;2.22;100.00
48624;BME280;75490;45.802;16.114;2024-01-15T06:40:15;64040.34;;;2.31;100.00
48624;BME280;75490;45.802;16.114;2024-01-15T06:42:42;64048.31;;;2.36;100.00
48624;BME280;75490;45.802;16.114;2024-01-15T06:45:09;64048.84;;;2.37;100.00
48624;BME280;75490;45.802;16.114;2024-01-15T06:47:36;64041.41;;;2.32;100.00
48624;BME280;75490;45.802;16.114;2024-01-15T06:50:02;64039.28;;;2.30;100.00
48624;BME280;75490;45.802;16.114;2024-01-15T06:52:31;64044.59;;;2.35;100.00
48624;BME280;75490;45.802;16.114;2024-01-15T06:54:58;64047.81;;;2.38;100.00
48624;BME280;75490;45.802;16.114;2024-01-15T06:57:25;64044.59;;;2.35;100.00
48624;BME280;75490;45.802;16.114;2024-01-15T06:59:51;64043.00;;;2.34;100.00
48624;BME280;75490;45.802;16.114;2024-01-15T07:02:18;64045.16;;;2.38;100.00
48624;BME280;75490;45.802;16.114;2024-01-15T07:04:45;64042.47;;;2.33;100.00
48624;BME280;75490;45.802;16.114;2024-01-15T07:07:12;64051.00;;;2.39;100.00
48624;BME280;75490;45.802;16.114;2024-01-15T07:09:39;64049.97;;;2.40;100.00
48624;BME280;75490;45.802;16.114;2024-01-15T07:12:05;64045.69;;;2.36;100.00
48624;BME280;75490;45.802;16.114;2024-01-15T07:14:32;64041.97;;;2.35;100.00
48624;BME280;75490;45.802;16.114;2024-01-15T07:16:59;64043.59;;;2.39;100.00
48624;BME280;75490;45.802;16.114;2024-01-15T07:19:26;64049.38;;;2.37;100.00
48624;BME280;75490;45.802;16.114;2024-01-15T07:21:53;64044.59;;;2.35;100.00
48624;BME280;75490;45.802;16.114;2024-01-15T07:24:19;64044.06;;;2.35;100.00
48624;BME280;75490;45.802;16.114;2024-01-15T07:26:46;64052.09;;;2.42;100.00
48624;BME280;75490;45.802;16.114;2024-01-15T07:29:13;64048.31;;;2.36;100.00
48624;BME280;75490;45.802;16.114;2024-01-15T07:31:40;64062.72;;;2.47;100.00
48624;BME280;75490;45.802;16.114;2024-01-15T07:34:06;64053.69;;;2.41;100.00
48624;BME280;75490;45.802;16.114;2024-01-15T07:36:33;64078.28;;;2.67;100.00
48624;BME280;75490;45.802;16.114;2024-01-15T07:39:00;64064.38;;;2.54;100.00
48624;BME280;75490;45.802;16.114;2024-01-15T07:41:27;64066.00;;;2.56;100.00
48624;BME280;75490;45.802;16.114;2024-01-15T07:43:53;64086.25;;;2.70;100.00
48624;BME280;75490;45.802;16.114;2024-01-15T07:46:20;64071.31;;;2.61;100.00
48624;BME280;75490;45.802;16.114;2024-01-15T07:48:48;64071.84;;;2.59;100.00
48624;BME280;75490;45.802;16.114;2024-01-15T07:51:17;64068.63;;;2.56;100.00
48624;BME280;75490;45.802;16.114;2024-01-15T07:53:45;64074.53;;;2.64;100.00
48624;BME280;75490;45.802;16.114;2024-01-15T07:56:11;64072.94;;;2.65;100.00
48624;BME280;75490;45.802;16.114;2024-01-15T07:58:38;64076.13;;;2.65;100.00
48624;BME280;75490;45.802;16.114;2024-01-15T08:01:05;64079.84;;;2.66;100.00
48624;BME280;75490;45.802;16.114;2024-01-15T08:03:33;64074.00;;;2.63;100.00
48624;BME280;75490;45.802;16.114;2024-01-15T08:06:00;64067.63;;;2.60;100.00
48624;BME280;75490;45.802;16.114;2024-01-15T08:08:27;64079.34;;;2.68;100.00
48624;BME280;75490;45.802;16.114;2024-01-15T08:10:54;64081.53;;;2.73;100.00
48624;BME280;75490;45.802;16.114;2024-01-15T08:13:21;64080.94;;;2.67;100.00
48624;BME280;75490;45.802;16.114;2024-01-15T08:15:47;64078.81;;;2.68;100.00
48624;BME280;75490;45.802;16.114;2024-01-15T08:18:14;64081.00;;;2.75;100.00
48624;BME280;75490;45.802;16.114;2024-01-15T08:20:41;64093.78;;;2.82;100.00
48624;BME280;75490;45.802;16.114;2024-01-15T08:23:08;64101.78;;;2.90;100.00
48624;BME280;75490;45.802;16.114;2024-01-15T08:25:36;64111.97;;;2.99;100.00
48624;BME280;75490;45.802;16.114;2024-01-15T08:28:03;64117.84;;;3.07;100.00
48624;BME280;75490;45.802;16.114;2024-01-15T08:30:29;64132.78;;;3.14;100.00
48624;BME280;75490;45.802;16.114;2024-01-15T08:32:57;64138.19;;;3.29;100.00
48624;BME280;75490;45.802;16.114;2024-01-15T08:35:23;64153.66;;;3.39;100.00
48624;BME280;75490;45.802;16.114;2024-01-15T08:37:52;64153.69;;;3.41;100.00
48624;BME280;75490;45.802;16.114;2024-01-15T08:40:19;64171.31;;;3.55;100.00
48624;BME280;75490;45.802;16.114;2024-01-15T08:42:46;64182.56;;;3.66;100.00
48624;BME280;75490;45.802;16.114;2024-01-15T08:45:13;64195.38;;;3.78;100.00
48624;BME280;75490;45.802;16.114;2024-01-15T08:47:40;64195.94;;;3.81;100.00
48624;BME280;75490;45.802;16.114;2024-01-15T08:50:07;64196.47;;;3.79;100.00
48624;BME280;75490;45.802;16.114;2024-01-15T08:52:36;64196.97;;;3.77;100.00
48624;BME280;75490;45.802;16.114;2024-01-15T08:55:04;64208.72;;;3.86;100.00
48624;BME280;75490;45.802;16.114;2024-01-15T08:57:31;64202.88;;;3.85;100.00
48624;BME280;75490;45.802;16.114;2024-01-15T08:59:57;64210.38;;;3.92;100.00
48624;BME280;75490;45.802;16.114;2024-01-15T09:02:25;64205.56;;;3.88;100.00
48624;BME280;75490;45.802;16.114;2024-01-15T09:04:52;64214.66;;;3.99;100.00
48624;BME280;75490;45.802;16.114;2024-01-15T09:07:19;64219.50;;;4.04;100.00
48624;BME280;75490;45.802;16.114;2024-01-15T09:09:45;64230.16;;;4.09;100.00
48624;BME280;75490;45.802;16.114;2024-01-15T09:12:12;64229.09;;;4.10;100.00
48624;BME280;75490;45.802;16.114;2024-01-15T09:14:42;64231.75;;;4.13;100.00
48624;BME280;75490;45.802;16.114;2024-01-15T09:17:09;64242.50;;;4.23;100.00
48624;BME280;75490;45.802;16.114;2024-01-15T09:19:35;64238.19;;;4.19;100.00
48624;BME280;75490;45.802;16.114;2024-01-15T09:22:02;64238.72;;;4.19;100.00
48624;BME280;75490;45.802;16.114;2024-01-15T09:24:29;64239.84;;;4.23;100.00
48624;BME280;75490;45.802;16.114;2024-01-15T09:26:56;64240.88;;;4.24;100.00
48624;BME280;75490;45.802;16.114;2024-01-15T09:29:23;64225.91;;;4.10;100.00
48624;BME280;75490;45.802;16.114;2024-01-15T09:31:50;64226.44;;;4.08;100.00
48624;BME280;75490;45.802;16.114;2024-01-15T09:34:17;64224.31;;;4.08;100.00
48624;BME280;75490;45.802;16.114;2024-01-15T09:36:44;64225.34;;;4.07;100.00
48624;BME280;75490;45.802;16.114;2024-01-15T09:39:11;64226.44;;;4.10;100.00
48624;BME280;75490;45.802;16.114;2024-01-15T09:41:38;64221.06;;;4.03;100.00
48624;BME280;75490;45.802;16.114;2024-01-15T09:44:05;64215.19;;;3.97;100.00
48624;BME280;75490;45.802;16.114;2024-01-15T09:46:35;64219.47;;;4.01;100.00
48624;BME280;75490;45.802;16.114;2024-01-15T09:49:01;64221.13;;;4.08;100.00
48624;BME280;75490;45.802;16.114;2024-01-15T09:51:31;64233.38;;;4.14;100.00
48624;BME280;75490;45.802;16.114;2024-01-15T09:53:58;64244.06;;;4.22;100.00
48624;BME280;75490;45.802;16.114;2024-01-15T09:56:25;64237.19;;;4.23;100.00
48624;BME280;75490;45.802;16.114;2024-01-15T09:58:52;64244.59;;;4.25;100.00
48624;BME280;75490;45.802;16.114;2024-01-15T10:01:22;64241.94;;;4.20;100.00
48624;BME280;75490;45.802;16.114;2024-01-15T10:03:50;64241.41;;;4.22;100.00
48624;BME280;75490;45.802;16.114;2024-01-15T10:06:17;64240.34;;;4.21;100.00
48624;BME280;75490;45.802;16.114;2024-01-15T10:08:50;64246.25;;;4.29;100.00
48624;BME280;75490;45.802;16.114;2024-01-15T10:11:17;64247.88;;;4.33;100.00
48624;BME280;75490;45.802;16.114;2024-01-15T10:13:45;64253.19;;;4.33;100.00
48624;BME280;75490;45.802;16.114;2024-01-15T10:16:12;64251.03;;;4.31;100.00
48624;BME280;75490;45.802;16.114;2024-01-15T10:18:39;64252.63;;;4.30;100.00
48624;BME280;75490;45.802;16.114;2024-01-15T10:21:07;64244.59;;;4.25;100.00
48624;BME280;75490;45.802;16.114;2024-01-15T10:23:34;64240.38;;;4.23;100.00
48624;BME280;75490;45.802;16.114;2024-01-15T10:26:05;64249.44;;;4.29;100.00
48624;BME280;75490;45.802;16.114;2024-01-15T10:28:32;64248.94;;;4.34;100.00
48624;BME280;75490;45.802;16.114;2024-01-15T10:31:00;64260.13;;;4.37;100.00
48624;BME280;75490;45.802;16.114;2024-01-15T10:33:27;64261.75;;;4.41;100.00
48624;BME280;75490;45.802;16.114;2024-01-15T10:35:56;64255.88;;;4.38;100.00
48624;BME280;75490;45.802;16.114;2024-01-15T10:38:24;64277.81;;;4.56;100.00
48624;BME280;75490;45.802;16.114;2024-01-15T10:40:52;64295.47;;;4.71;100.00
48624;BME280;75490;45.802;16.114;2024-01-15T10:43:20;64286.91;;;4.65;100.00
48624;BME280;75490;45.802;16.114;2024-01-15T10:45:48;64284.25;;;4.62;100.00
48624;BME280;75490;45.802;16.114;2024-01-15T10:48:19;64268.75;;;4.53;100.00
48624;BME280;75490;45.802;16.114;2024-01-15T10:50:47;64267.63;;;4.47;100.00
48624;BME280;75490;45.802;16.114;2024-01-15T10:53:16;64275.13;;;4.54;100.00
48624;BME280;75490;45.802;16.114;2024-01-15T10:55:43;64276.19;;;4.52;100.00
48624;BME280;75490;45.802;16.114;2024-01-15T10:58:10;64275.66;;;4.54;100.00
48624;BME280;75490;45.802;16.114;2024-01-15T11:00:38;64276.75;;;4.58;100.00
48624;BME280;75490;45.802;16.114;2024-01-15T11:03:06;64272.97;;;4.52;100.00
48624;BME280;75490;45.802;16.114;2024-01-15T11:05:36;64284.25;;;4.62;100.00
48624;BME280;75490;45.802;16.114;2024-01-15T11:08:05;64284.25;;;4.62;100.00
48624;BME280;75490;45.802;16.114;2024-01-15T11:10:43;64278.88;;;4.57;100.00
48624;BME280;75490;45.802;16.114;2024-01-15T11:13:20;64280.00;;;4.63;100.00
48624;BME280;75490;45.802;16.114;2024-01-15T11:18:41;64295.47;;;4.73;100.00
48624;BME280;75490;45.802;16.114;2024-01-15T11:23:46;64286.41;;;4.70;100.00
48624;BME280;75490;45.802;16.114;2024-01-15T11:28:59;64300.28;;;4.75;100.00
48624;BME280;75490;45.802;16.114;2024-01-15T11:34:03;64292.84;;;4.76;100.00
48624;BME280;75490;45.802;16.114;2024-01-15T11:42:01;64285.31;;;4.66;100.00
48624;BME280;75490;45.802;16.114;2024-01-15T11:44:32;64275.16;;;4.56;100.00
48624;BME280;75490;45.802;16.114;2024-01-15T11:47:01;64283.13;;;4.56;100.00
48624;BME280;75490;45.802;16.114;2024-01-15T11:52:20;64253.22;;;4.38;100.00
48624;BME280;75490;45.802;16.114;2024-01-15T12:00:16;64248.38;;;4.31;100.00
48624;BME280;75490;45.802;16.114;2024-01-15T12:02:45;64246.81;;;4.32;100.00
48624;BME280;75490;45.802;16.114;2024-01-15T12:05:14;64254.78;;;4.35;100.00
48624;BME280;75490;45.802;16.114;2024-01-15T12:07:41;64246.75;;;4.27;100.00
48624;BME280;75490;45.802;16.114;2024-01-15T12:10:16;64224.28;;;4.06;100.00
48624;BME280;75490;45.802;16.114;2024-01-15T12:12:57;64210.91;;;3.93;100.00
48624;BME280;75490;45.802;16.114;2024-01-15T12:15:27;64197.03;;;3.82;100.00
48624;BME280;75490;45.802;16.114;2024-01-15T12:18:00;64174.53;;;3.58;100.00
48624;BME280;75490;45.802;16.114;2024-01-15T12:20:30;64153.13;;;3.38;100.00
48624;BME280;75490;45.802;16.114;2024-01-15T12:22:58;64140.84;;;3.27;100.00
48624;BME280;75490;45.802;16.114;2024-01-15T12:25:25;64128.47;;;3.10;100.00
48624;BME280;75490;45.802;16.114;2024-01-15T12:27:56;64117.34;;;3.09;100.00
48624;BME280;75490;45.802;16.114;2024-01-15T12:30:23;64112.50;;;3.02;100.00
48624;BME280;75490;45.802;16.114;2024-01-15T12:32:50;64108.78;;;2.99;100.00
48624;BME280;75490;45.802;16.114;2024-01-15T12:35:16;64098.59;;;2.89;100.00
48624;BME280;75490;45.802;16.114;2024-01-15T12:37:44;64079.88;;;2.69;100.00
48624;BME280;75490;45.802;16.114;2024-01-15T12:40:13;64076.66;;;2.66;100.00
48624;BME280;75490;45.802;16.114;2024-01-15T12:42:45;64093.19;;;2.76;100.00
48624;BME280;75490;45.802;16.114;2024-01-15T12:45:12;64080.97;;;2.70;100.00
48624;BME280;75490;45.802;16.114;2024-01-15T12:47:41;64080.91;;;2.65;100.00
48624;BME280;75490;45.802;16.114;2024-01-15T12:50:12;64053.69;;;2.41;100.00
48624;BME280;75490;45.802;16.114;2024-01-15T12:52:42;64045.69;;;2.36;100.00
48624;BME280;75490;45.802;16.114;2024-01-15T12:55:09;64041.91;;;2.30;100.00
48624;BME280;75490;45.802;16.114;2024-01-15T12:57:37;64044.56;;;2.30;100.00
48624;BME280;75490;45.802;16.114;2024-01-15T13:00:05;64040.34;;;2.31;100.00
48624;BME280;75490;45.802;16.114;2024-01-15T13:02:39;64032.91;;;2.29;100.00
48624;BME280;75490;45.802;16.114;2024-01-15T13:05:09;64042.47;;;2.33;100.00
48624;BME280;75490;45.802;16.114;2024-01-15T13:07:37;64049.38;;;2.37;100.00
48624;BME280;75490;45.802;16.114;2024-01-15T13:10:05;64046.22;;;2.37;100.00
48624;BME280;75490;45.802;16.114;2024-01-15T13:12:39;64055.25;;;2.40;100.00
48624;BME280;75490;45.802;16.114;2024-01-15T13:15:26;64043.50;;;2.29;100.00